sensor_id;sensor_type;location;lat;lon;timestamp;P1;durP1;ratioP1;P2;durP2;ratioP2
10088;SDS011;51898;49.864;8.550;2023-05-16T00:00:48;40.93;;;24.60;;
10088;SDS011;51898;49.864;8.550;2023-05-16T00:03:53;38.87;;;23.97;;
10088;SDS011;51898;49.864;8.550;2023-05-16T00:06:55;40.77;;;24.87;;
10088;SDS011;51898;49.864;8.550;2023-05-16T00:09:56;42.20;;;25.53;;
10088;SDS011;51898;49.864;8.550;2023-05-16T00:12:58;47.03;;;28.20;;
10088;SDS011;51898;49.864;8.550;2023-05-16T00:16:01;44.07;;;26.50;;
10088;SDS011;51898;49.864;8.550;2023-05-16T00:19:05;44.07;;;25.10;;
10088;SDS011;51898;49.864;8.550;2023-05-16T00:22:07;41.90;;;26.07;;
10088;SDS011;51898;49.864;8.550;2023-05-16T00:25:09;45.70;;;27.63;;
10088;SDS011;51898;49.864;8.550;2023-05-16T00:28:10;45.07;;;25.57;;
10088;SDS011;51898;49.864;8.550;2023-05-16T00:31:12;40.73;;;27.03;;
10088;SDS011;51898;49.864;8.550;2023-05-16T00:34:14;51.60;;;28.30;;
10088;SDS011;51898;49.864;8.550;2023-05-16T00:37:16;45.20;;;27.00;;
10088;SDS011;51898;49.864;8.550;2023-05-16T00:40:17;49.80;;;29.07;;
10088;SDS011;51898;49.864;8.550;2023-05-16T00:43:19;43.90;;;27.10;;
10088;SDS011;51898;49.864;8.550;2023-05-16T00:46:20;47.70;;;28.33;;
10088;SDS011;51898;49.864;8.550;2023-05-16T00:49:22;48.10;;;27.70;;
10088;SDS011;51898;49.864;8.550;2023-05-16T00:52:24;50.67;;;28.10;;
10088;SDS011;51898;49.864;8.550;2023-05-16T00:55:26;47.33;;;29.77;;
10088;SDS011;51898;49.864;8.550;2023-05-16T00:58:29;47.30;;;28.73;;
10088;SDS011;51898;49.864;8.550;2023-05-16T01:01:32;50.57;;;29.30;;
10088;SDS011;51898;49.864;8.550;2023-05-16T01:04:35;52.97;;;29.43;;
10088;SDS011;51898;49.864;8.550;2023-05-16T01:07:37;44.70;;;28.27;;
10088;SDS011;51898;49.864;8.550;2023-05-16T01:10:42;48.00;;;28.77;;
10088;SDS011;51898;49.864;8.550;2023-05-16T01:20:08;47.43;;;27.50;;
10088;SDS011;51898;49.864;8.550;2023-05-16T01:26:54;45.23;;;28.00;;
10088;SDS011;51898;49.864;8.550;2023-05-16T01:29:57;44.20;;;27.53;;
10088;SDS011;51898;49.864;8.550;2023-05-16T01:32:59;41.40;;;26.17;;
10088;SDS011;51898;49.864;8.550;2023-05-16T01:39:36;47.10;;;28.93;;
10088;SDS011;51898;49.864;8.550;2023-05-16T01:42:44;49.63;;;28.77;;
10088;SDS011;51898;49.864;8.550;2023-05-16T01:45:53;49.60;;;27.67;;
10088;SDS011;51898;49.864;8.550;2023-05-16T01:52:24;41.73;;;27.50;;
10088;SDS011;51898;49.864;8.550;2023-05-16T01:55:44;47.33;;;29.37;;
10088;SDS011;51898;49.864;8.550;2023-05-16T01:58:48;42.10;;;26.30;;
10088;SDS011;51898;49.864;8.550;2023-05-16T02:01:52;44.90;;;27.90;;
10088;SDS011;51898;49.864;8.550;2023-05-16T02:04:55;47.07;;;28.17;;
10088;SDS011;51898;49.864;8.550;2023-05-16T02:07:57;50.73;;;27.70;;
10088;SDS011;51898;49.864;8.550;2023-05-16T02:10:59;44.07;;;26.50;;
10088;SDS011;51898;49.864;8.550;2023-05-16T02:14:02;45.80;;;28.63;;
10088;SDS011;51898;49.864;8.550;2023-05-16T02:17:03;39.30;;;25.90;;
10088;SDS011;51898;49.864;8.550;2023-05-16T02:20:06;43.80;;;25.63;;
10088;SDS011;51898;49.864;8.550;2023-05-16T02:23:11;40.40;;;25.70;;
10088;SDS011;51898;49.864;8.550;2023-05-16T02:26:13;39.93;;;24.60;;
10088;SDS011;51898;49.864;8.550;2023-05-16T02:29:14;40.07;;;26.50;;
10088;SDS011;51898;49.864;8.550;2023-05-16T02:32:16;38.70;;;25.63;;
10088;SDS011;51898;49.864;8.550;2023-05-16T02:35:18;43.33;;;26.00;;
10088;SDS011;51898;49.864;8.550;2023-05-16T02:38:20;39.17;;;25.67;;
10088;SDS011;51898;49.864;8.550;2023-05-16T02:41:22;42.30;;;25.30;;
10088;SDS011;51898;49.864;8.550;2023-05-16T02:44:24;42.13;;;24.43;;
10088;SDS011;51898;49.864;8.550;2023-05-16T02:47:25;39.20;;;25.37;;
10088;SDS011;51898;49.864;8.550;2023-05-16T02:50:27;40.00;;;25.63;;
10088;SDS011;51898;49.864;8.550;2023-05-16T02:53:29;37.13;;;24.07;;
10088;SDS011;51898;49.864;8.550;2023-05-16T02:56:30;41.20;;;25.57;;
10088;SDS011;51898;49.864;8.550;2023-05-16T02:59:32;37.87;;;23.07;;
10088;SDS011;51898;49.864;8.550;2023-05-16T03:02:33;38.47;;;24.00;;
10088;SDS011;51898;49.864;8.550;2023-05-16T03:05:35;38.67;;;23.90;;
10088;SDS011;51898;49.864;8.550;2023-05-16T03:08:37;38.77;;;22.53;;
10088;SDS011;51898;49.864;8.550;2023-05-16T03:11:39;39.10;;;23.20;;
10088;SDS011;51898;49.864;8.550;2023-05-16T03:14:41;36.80;;;22.20;;
10088;SDS011;51898;49.864;8.550;2023-05-16T03:17:42;39.07;;;23.50;;
10088;SDS011;51898;49.864;8.550;2023-05-16T03:20:44;38.37;;;22.77;;
10088;SDS011;51898;49.864;8.550;2023-05-16T03:23:46;42.23;;;23.87;;
10088;SDS011;51898;49.864;8.550;2023-05-16T03:26:47;39.13;;;23.33;;
10088;SDS011;51898;49.864;8.550;2023-05-16T03:29:49;44.30;;;23.57;;
10088;SDS011;51898;49.864;8.550;2023-05-16T03:32:51;38.63;;;24.07;;
10088;SDS011;51898;49.864;8.550;2023-05-16T03:35:53;42.80;;;24.00;;
10088;SDS011;51898;49.864;8.550;2023-05-16T03:38:54;42.57;;;23.13;;
10088;SDS011;51898;49.864;8.550;2023-05-16T03:41:56;43.27;;;24.63;;
10088;SDS011;51898;49.864;8.550;2023-05-16T03:44:58;34.33;;;23.07;;
10088;SDS011;51898;49.864;8.550;2023-05-16T03:47:59;31.17;;;19.37;;
10088;SDS011;51898;49.864;8.550;2023-05-16T03:51:01;44.57;;;23.60;;
10088;SDS011;51898;49.864;8.550;2023-05-16T03:54:03;44.87;;;21.77;;
10088;SDS011;51898;49.864;8.550;2023-05-16T03:57:05;38.90;;;21.97;;
10088;SDS011;51898;49.864;8.550;2023-05-16T04:00:07;37.73;;;20.40;;
10088;SDS011;51898;49.864;8.550;2023-05-16T04:03:11;35.50;;;20.67;;
10088;SDS011;51898;49.864;8.550;2023-05-16T04:06:13;39.80;;;20.77;;
10088;SDS011;51898;49.864;8.550;2023-05-16T04:09:15;36.63;;;20.60;;
10088;SDS011;51898;49.864;8.550;2023-05-16T04:12:17;36.47;;;20.90;;
10088;SDS011;51898;49.864;8.550;2023-05-16T04:15:19;36.60;;;19.60;;
10088;SDS011;51898;49.864;8.550;2023-05-16T04:18:21;34.60;;;19.90;;
10088;SDS011;51898;49.864;8.550;2023-05-16T04:21:23;31.53;;;18.70;;
10088;SDS011;51898;49.864;8.550;2023-05-16T04:24:24;39.33;;;20.93;;
10088;SDS011;51898;49.864;8.550;2023-05-16T04:27:28;38.50;;;20.33;;
10088;SDS011;51898;49.864;8.550;2023-05-16T04:30:31;30.07;;;18.47;;
10088;SDS011;51898;49.864;8.550;2023-05-16T04:33:33;34.93;;;18.87;;
10088;SDS011;51898;49.864;8.550;2023-05-16T04:36:35;32.60;;;17.50;;
10088;SDS011;51898;49.864;8.550;2023-05-16T04:39:37;24.67;;;14.23;;
10088;SDS011;51898;49.864;8.550;2023-05-16T04:42:39;21.70;;;13.30;;
10088;SDS011;51898;49.864;8.550;2023-05-16T04:45:40;20.53;;;12.07;;
10088;SDS011;51898;49.864;8.550;2023-05-16T04:48:43;17.27;;;10.33;;
10088;SDS011;51898;49.864;8.550;2023-05-16T04:51:45;20.50;;;12.27;;
10088;SDS011;51898;49.864;8.550;2023-05-16T04:54:51;19.20;;;10.80;;
10088;SDS011;51898;49.864;8.550;2023-05-16T04:57:53;12.87;;;8.33;;
10088;SDS011;51898;49.864;8.550;2023-05-16T05:00:54;13.73;;;7.13;;
10088;SDS011;51898;49.864;8.550;2023-05-16T05:03:56;9.30;;;6.33;;
10088;SDS011;51898;49.864;8.550;2023-05-16T05:06:58;10.23;;;5.50;;
10088;SDS011;51898;49.864;8.550;2023-05-16T05:10:00;7.60;;;4.50;;
10088;SDS011;51898;49.864;8.550;2023-05-16T05:13:01;6.90;;;4.40;;
10088;SDS011;51898;49.864;8.550;2023-05-16T05:16:03;5.90;;;4.10;;
10088;SDS011;51898;49.864;8.550;2023-05-16T05:19:06;3.93;;;3.20;;
10088;SDS011;51898;49.864;8.550;2023-05-16T05:22:09;4.77;;;3.70;;
10088;SDS011;51898;49.864;8.550;2023-05-16T05:25:10;3.93;;;3.20;;
10088;SDS011;51898;49.864;8.550;2023-05-16T05:28:12;3.27;;;2.97;;
10088;SDS011;51898;49.864;8.550;2023-05-16T05:31:14;5.40;;;3.50;;
10088;SDS011;51898;49.864;8.550;2023-05-16T05:34:16;3.50;;;2.93;;
10088;SDS011;51898;49.864;8.550;2023-05-16T05:37:18;11.27;;;4.70;;
10088;SDS011;51898;49.864;8.550;2023-05-16T05:40:20;3.97;;;2.93;;
10088;SDS011;51898;49.864;8.550;2023-05-16T05:43:21;4.40;;;3.20;;
10088;SDS011;51898;49.864;8.550;2023-05-16T05:46:23;6.30;;;3.73;;
10088;SDS011;51898;49.864;8.550;2023-05-16T05:49:26;3.20;;;2.40;;
10088;SDS011;51898;49.864;8.550;2023-05-16T05:52:28;2.87;;;2.07;;
10088;SDS011;51898;49.864;8.550;2023-05-16T05:55:30;4.13;;;2.87;;
10088;SDS011;51898;49.864;8.550;2023-05-16T05:58:31;3.20;;;2.70;;
10088;SDS011;51898;49.864;8.550;2023-05-16T06:01:33;2.13;;;1.93;;
10088;SDS011;51898;49.864;8.550;2023-05-16T06:04:35;2.93;;;2.10;;
10088;SDS011;51898;49.864;8.550;2023-05-16T06:07:36;7.57;;;2.30;;
10088;SDS011;51898;49.864;8.550;2023-05-16T06:10:38;4.47;;;2.20;;
10088;SDS011;51898;49.864;8.550;2023-05-16T06:13:40;2.37;;;2.17;;
10088;SDS011;51898;49.864;8.550;2023-05-16T06:16:41;4.40;;;2.40;;
10088;SDS011;51898;49.864;8.550;2023-05-16T06:19:43;2.70;;;2.50;;
10088;SDS011;51898;49.864;8.550;2023-05-16T06:22:45;2.20;;;2.00;;
10088;SDS011;51898;49.864;8.550;2023-05-16T06:25:47;2.73;;;2.53;;
10088;SDS011;51898;49.864;8.550;2023-05-16T06:28:49;3.80;;;2.10;;
10088;SDS011;51898;49.864;8.550;2023-05-16T06:31:50;2.93;;;2.03;;
10088;SDS011;51898;49.864;8.550;2023-05-16T06:34:52;2.97;;;2.07;;
10088;SDS011;51898;49.864;8.550;2023-05-16T06:37:54;2.93;;;2.07;;
10088;SDS011;51898;49.864;8.550;2023-05-16T06:40:55;2.37;;;2.10;;
10088;SDS011;51898;49.864;8.550;2023-05-16T06:43:57;4.40;;;2.10;;
10088;SDS011;51898;49.864;8.550;2023-05-16T06:46:59;6.27;;;2.13;;
10088;SDS011;51898;49.864;8.550;2023-05-16T06:50:06;2.50;;;2.00;;
10088;SDS011;51898;49.864;8.550;2023-05-16T06:53:08;3.60;;;2.50;;
10088;SDS011;51898;49.864;8.550;2023-05-16T06:56:12;5.60;;;3.27;;
10088;SDS011;51898;49.864;8.550;2023-05-16T06:59:13;3.90;;;2.47;;
10088;SDS011;51898;49.864;8.550;2023-05-16T07:02:15;1.93;;;1.30;;
10088;SDS011;51898;49.864;8.550;2023-05-16T07:05:17;1.80;;;1.70;;
10088;SDS011;51898;49.864;8.550;2023-05-16T07:08:19;1.93;;;1.80;;
10088;SDS011;51898;49.864;8.550;2023-05-16T07:11:21;2.07;;;1.87;;
10088;SDS011;51898;49.864;8.550;2023-05-16T07:14:23;1.90;;;1.63;;
10088;SDS011;51898;49.864;8.550;2023-05-16T07:17:25;34.20;;;15.23;;
10088;SDS011;51898;49.864;8.550;2023-05-16T07:20:27;4.30;;;3.60;;
10088;SDS011;51898;49.864;8.550;2023-05-16T07:23:29;2.07;;;1.20;;
10088;SDS011;51898;49.864;8.550;2023-05-16T07:26:31;1.50;;;1.33;;
10088;SDS011;51898;49.864;8.550;2023-05-16T07:29:34;2.80;;;1.60;;
10088;SDS011;51898;49.864;8.550;2023-05-16T07:32:37;1.37;;;1.17;;
10088;SDS011;51898;49.864;8.550;2023-05-16T07:35:39;4.50;;;2.43;;
10088;SDS011;51898;49.864;8.550;2023-05-16T07:38:41;5.77;;;3.97;;
10088;SDS011;51898;49.864;8.550;2023-05-16T07:41:43;12.10;;;6.53;;
10088;SDS011;51898;49.864;8.550;2023-05-16T07:44:45;11.77;;;6.20;;
10088;SDS011;51898;49.864;8.550;2023-05-16T07:47:47;1.37;;;1.27;;
10088;SDS011;51898;49.864;8.550;2023-05-16T07:50:49;1.10;;;1.00;;
10088;SDS011;51898;49.864;8.550;2023-05-16T07:53:52;1.50;;;1.07;;
10088;SDS011;51898;49.864;8.550;2023-05-16T07:56:54;5.07;;;1.30;;
10088;SDS011;51898;49.864;8.550;2023-05-16T07:59:57;1.10;;;0.80;;
10088;SDS011;51898;49.864;8.550;2023-05-16T08:02:58;2.20;;;2.00;;
10088;SDS011;51898;49.864;8.550;2023-05-16T08:06:00;3.40;;;1.10;;
10088;SDS011;51898;49.864;8.550;2023-05-16T08:09:02;3.43;;;1.23;;
10088;SDS011;51898;49.864;8.550;2023-05-16T08:12:04;1.23;;;0.90;;
10088;SDS011;51898;49.864;8.550;2023-05-16T08:15:06;3.00;;;1.00;;
10088;SDS011;51898;49.864;8.550;2023-05-16T08:18:12;0.83;;;0.70;;
10088;SDS011;51898;49.864;8.550;2023-05-16T08:21:15;1.53;;;0.80;;
10088;SDS011;51898;49.864;8.550;2023-05-16T08:24:17;1.20;;;0.93;;
10088;SDS011;51898;49.864;8.550;2023-05-16T08:27:18;0.70;;;0.60;;
10088;SDS011;51898;49.864;8.550;2023-05-16T08:30:20;0.80;;;0.70;;
10088;SDS011;51898;49.864;8.550;2023-05-16T08:33:22;0.60;;;0.60;;
10088;SDS011;51898;49.864;8.550;2023-05-16T08:36:24;1.07;;;0.73;;
10088;SDS011;51898;49.864;8.550;2023-05-16T08:39:26;0.90;;;0.77;;
10088;SDS011;51898;49.864;8.550;2023-05-16T08:42:28;0.73;;;0.70;;
10088;SDS011;51898;49.864;8.550;2023-05-16T08:45:29;0.80;;;0.80;;
10088;SDS011;51898;49.864;8.550;2023-05-16T08:48:31;1.03;;;0.80;;
10088;SDS011;51898;49.864;8.550;2023-05-16T08:51:36;1.17;;;0.90;;
10088;SDS011;51898;49.864;8.550;2023-05-16T08:54:38;1.60;;;0.87;;
10088;SDS011;51898;49.864;8.550;2023-05-16T08:57:42;8.53;;;2.80;;
10088;SDS011;51898;49.864;8.550;2023-05-16T09:00:45;3.17;;;1.00;;
10088;SDS011;51898;49.864;8.550;2023-05-16T09:03:51;1.10;;;0.70;;
10088;SDS011;51898;49.864;8.550;2023-05-16T09:06:53;0.80;;;0.70;;
10088;SDS011;51898;49.864;8.550;2023-05-16T09:09:56;2.90;;;1.03;;
10088;SDS011;51898;49.864;8.550;2023-05-16T09:12:57;1.67;;;0.87;;
10088;SDS011;51898;49.864;8.550;2023-05-16T09:19:17;3.43;;;1.10;;
10088;SDS011;51898;49.864;8.550;2023-05-16T09:22:20;1.30;;;1.20;;
10088;SDS011;51898;49.864;8.550;2023-05-16T09:25:27;4.40;;;1.20;;
10088;SDS011;51898;49.864;8.550;2023-05-16T09:28:32;1.30;;;1.20;;
10088;SDS011;51898;49.864;8.550;2023-05-16T09:31:34;0.97;;;0.93;;
10088;SDS011;51898;49.864;8.550;2023-05-16T09:34:48;1.60;;;1.10;;
10088;SDS011;51898;49.864;8.550;2023-05-16T09:37:51;3.53;;;1.13;;
10088;SDS011;51898;49.864;8.550;2023-05-16T09:40:56;2.03;;;1.30;;
10088;SDS011;51898;49.864;8.550;2023-05-16T09:43:59;1.57;;;1.00;;
10088;SDS011;51898;49.864;8.550;2023-05-16T09:47:05;2.67;;;1.33;;
10088;SDS011;51898;49.864;8.550;2023-05-16T09:50:07;2.80;;;1.17;;
10088;SDS011;51898;49.864;8.550;2023-05-16T09:53:09;1.30;;;1.10;;
10088;SDS011;51898;49.864;8.550;2023-05-16T09:56:14;1.23;;;1.13;;
10088;SDS011;51898;49.864;8.550;2023-05-16T09:59:16;2.30;;;1.30;;
10088;SDS011;51898;49.864;8.550;2023-05-16T10:02:18;1.30;;;1.20;;
10088;SDS011;51898;49.864;8.550;2023-05-16T10:05:20;1.57;;;1.33;;
10088;SDS011;51898;49.864;8.550;2023-05-16T10:08:23;1.93;;;1.13;;
10088;SDS011;51898;49.864;8.550;2023-05-16T10:11:25;3.07;;;1.17;;
10088;SDS011;51898;49.864;8.550;2023-05-16T10:14:28;2.07;;;1.07;;
10088;SDS011;51898;49.864;8.550;2023-05-16T10:17:34;2.07;;;1.20;;
10088;SDS011;51898;49.864;8.550;2023-05-16T10:20:40;1.77;;;1.20;;
10088;SDS011;51898;49.864;8.550;2023-05-16T10:23:46;5.63;;;1.20;;
10088;SDS011;51898;49.864;8.550;2023-05-16T10:26:50;1.60;;;1.20;;
10088;SDS011;51898;49.864;8.550;2023-05-16T10:29:52;3.37;;;1.40;;
10088;SDS011;51898;49.864;8.550;2023-05-16T10:32:55;2.70;;;1.43;;
10088;SDS011;51898;49.864;8.550;2023-05-16T10:35:59;1.23;;;1.10;;
10088;SDS011;51898;49.864;8.550;2023-05-16T10:39:05;3.87;;;1.33;;
10088;SDS011;51898;49.864;8.550;2023-05-16T10:42:07;7.30;;;1.67;;
10088;SDS011;51898;49.864;8.550;2023-05-16T10:48:34;1.40;;;1.30;;
10088;SDS011;51898;49.864;8.550;2023-05-16T10:51:37;2.87;;;1.40;;
10088;SDS011;51898;49.864;8.550;2023-05-16T10:54:42;3.43;;;1.80;;
10088;SDS011;51898;49.864;8.550;2023-05-16T10:57:45;2.43;;;1.70;;
10088;SDS011;51898;49.864;8.550;2023-05-16T11:00:47;5.10;;;2.10;;
10088;SDS011;51898;49.864;8.550;2023-05-16T11:06:58;4.90;;;1.90;;
10088;SDS011;51898;49.864;8.550;2023-05-16T11:10:05;5.17;;;2.03;;
10088;SDS011;51898;49.864;8.550;2023-05-16T11:13:11;5.63;;;1.93;;
10088;SDS011;51898;49.864;8.550;2023-05-16T11:16:25;3.73;;;1.90;;
10088;SDS011;51898;49.864;8.550;2023-05-16T11:19:28;4.20;;;2.07;;
10088;SDS011;51898;49.864;8.550;2023-05-16T11:22:32;3.80;;;2.30;;
10088;SDS011;51898;49.864;8.550;2023-05-16T11:25:40;6.60;;;2.40;;
10088;SDS011;51898;49.864;8.550;2023-05-16T11:28:43;8.20;;;2.03;;
10088;SDS011;51898;49.864;8.550;2023-05-16T11:31:51;5.77;;;2.30;;
10088;SDS011;51898;49.864;8.550;2023-05-16T11:34:53;5.53;;;2.10;;
10088;SDS011;51898;49.864;8.550;2023-05-16T11:37:57;4.13;;;2.30;;
10088;SDS011;51898;49.864;8.550;2023-05-16T11:41:05;6.93;;;2.03;;
10088;SDS011;51898;49.864;8.550;2023-05-16T11:44:10;5.00;;;2.20;;
10088;SDS011;51898;49.864;8.550;2023-05-16T11:47:15;7.20;;;2.00;;
10088;SDS011;51898;49.864;8.550;2023-05-16T11:50:17;4.80;;;2.73;;
10088;SDS011;51898;49.864;8.550;2023-05-16T11:53:21;7.60;;;2.33;;
10088;SDS011;51898;49.864;8.550;2023-05-16T11:56:26;5.17;;;1.80;;
10088;SDS011;51898;49.864;8.550;2023-05-16T11:59:28;3.90;;;2.10;;
10088;SDS011;51898;49.864;8.550;2023-05-16T12:02:30;5.70;;;2.10;;
10088;SDS011;51898;49.864;8.550;2023-05-16T12:05:32;5.60;;;1.97;;
10088;SDS011;51898;49.864;8.550;2023-05-16T12:08:36;3.37;;;1.90;;
10088;SDS011;51898;49.864;8.550;2023-05-16T12:11:43;5.60;;;2.20;;
10088;SDS011;51898;49.864;8.550;2023-05-16T12:14:45;7.93;;;2.33;;
10088;SDS011;51898;49.864;8.550;2023-05-16T12:17:47;4.50;;;2.10;;
10088;SDS011;51898;49.864;8.550;2023-05-16T12:20:49;4.23;;;2.47;;
10088;SDS011;51898;49.864;8.550;2023-05-16T12:23:54;3.33;;;1.87;;
10088;SDS011;51898;49.864;8.550;2023-05-16T12:26:56;3.70;;;2.20;;
10088;SDS011;51898;49.864;8.550;2023-05-16T12:29:59;7.97;;;2.63;;
10088;SDS011;51898;49.864;8.550;2023-05-16T12:33:01;9.37;;;2.80;;
10088;SDS011;51898;49.864;8.550;2023-05-16T12:36:11;5.70;;;2.30;;
10088;SDS011;51898;49.864;8.550;2023-05-16T12:39:14;5.90;;;2.00;;
10088;SDS011;51898;49.864;8.550;2023-05-16T12:42:16;6.30;;;2.10;;
10088;SDS011;51898;49.864;8.550;2023-05-16T12:45:20;5.27;;;2.23;;
10088;SDS011;51898;49.864;8.550;2023-05-16T12:48:23;6.70;;;2.90;;
10088;SDS011;51898;49.864;8.550;2023-05-16T12:51:30;3.40;;;2.00;;
10088;SDS011;51898;49.864;8.550;2023-05-16T12:54:35;4.37;;;2.20;;
10088;SDS011;51898;49.864;8.550;2023-05-16T12:57:37;4.73;;;2.60;;
10088;SDS011;51898;49.864;8.550;2023-05-16T13:00:43;3.20;;;2.20;;
10088;SDS011;51898;49.864;8.550;2023-05-16T13:03:45;6.20;;;2.47;;
10088;SDS011;51898;49.864;8.550;2023-05-16T13:06:47;3.87;;;2.53;;
10088;SDS011;51898;49.864;8.550;2023-05-16T13:10:00;6.83;;;2.60;;
10088;SDS011;51898;49.864;8.550;2023-05-16T13:13:02;5.50;;;2.30;;
10088;SDS011;51898;49.864;8.550;2023-05-16T13:16:07;3.20;;;2.30;;
10088;SDS011;51898;49.864;8.550;2023-05-16T13:19:27;6.23;;;2.57;;
10088;SDS011;51898;49.864;8.550;2023-05-16T13:22:31;7.77;;;2.50;;
10088;SDS011;51898;49.864;8.550;2023-05-16T13:25:33;7.03;;;2.30;;
10088;SDS011;51898;49.864;8.550;2023-05-16T13:28:35;3.60;;;2.40;;
10088;SDS011;51898;49.864;8.550;2023-05-16T13:31:40;3.97;;;2.17;;
10088;SDS011;51898;49.864;8.550;2023-05-16T13:34:42;3.60;;;2.20;;
10088;SDS011;51898;49.864;8.550;2023-05-16T13:37:43;3.40;;;2.10;;
10088;SDS011;51898;49.864;8.550;2023-05-16T13:40:45;7.03;;;2.20;;
10088;SDS011;51898;49.864;8.550;2023-05-16T13:43:47;3.90;;;2.33;;
10088;SDS011;51898;49.864;8.550;2023-05-16T13:46:49;5.07;;;2.30;;
10088;SDS011;51898;49.864;8.550;2023-05-16T13:49:51;7.13;;;2.53;;
10088;SDS011;51898;49.864;8.550;2023-05-16T13:52:55;2.50;;;1.90;;
10088;SDS011;51898;49.864;8.550;2023-05-16T13:55:57;8.30;;;2.37;;
10088;SDS011;51898;49.864;8.550;2023-05-16T13:59:01;4.27;;;2.37;;
10088;SDS011;51898;49.864;8.550;2023-05-16T14:02:07;5.17;;;2.70;;
10088;SDS011;51898;49.864;8.550;2023-05-16T14:05:09;4.50;;;2.40;;
10088;SDS011;51898;49.864;8.550;2023-05-16T14:08:11;2.60;;;2.30;;
10088;SDS011;51898;49.864;8.550;2023-05-16T14:11:13;2.27;;;2.17;;
10088;SDS011;51898;49.864;8.550;2023-05-16T14:14:14;6.43;;;2.43;;
10088;SDS011;51898;49.864;8.550;2023-05-16T14:17:18;2.50;;;2.30;;
10088;SDS011;51898;49.864;8.550;2023-05-16T14:20:20;3.00;;;2.07;;
10088;SDS011;51898;49.864;8.550;2023-05-16T14:23:21;2.60;;;2.10;;
10088;SDS011;51898;49.864;8.550;2023-05-16T14:26:23;3.50;;;2.20;;
10088;SDS011;51898;49.864;8.550;2023-05-16T14:29:26;3.13;;;2.47;;
10088;SDS011;51898;49.864;8.550;2023-05-16T14:32:28;5.00;;;2.60;;
10088;SDS011;51898;49.864;8.550;2023-05-16T14:35:31;2.23;;;2.13;;
10088;SDS011;51898;49.864;8.550;2023-05-16T14:38:33;2.50;;;2.30;;
10088;SDS011;51898;49.864;8.550;2023-05-16T14:41:35;2.50;;;1.87;;
10088;SDS011;51898;49.864;8.550;2023-05-16T14:44:37;2.23;;;2.07;;
10088;SDS011;51898;49.864;8.550;2023-05-16T14:47:39;4.17;;;2.60;;
10088;SDS011;51898;49.864;8.550;2023-05-16T14:50:41;2.53;;;1.90;;
10088;SDS011;51898;49.864;8.550;2023-05-16T14:53:43;4.20;;;2.00;;
10088;SDS011;51898;49.864;8.550;2023-05-16T14:56:47;5.30;;;2.17;;
10088;SDS011;51898;49.864;8.550;2023-05-16T14:59:49;3.80;;;2.00;;
10088;SDS011;51898;49.864;8.550;2023-05-16T15:02:51;3.97;;;2.77;;
10088;SDS011;51898;49.864;8.550;2023-05-16T15:05:53;3.73;;;2.00;;
10088;SDS011;51898;49.864;8.550;2023-05-16T15:08:55;2.40;;;2.20;;
10088;SDS011;51898;49.864;8.550;2023-05-16T15:11:56;4.57;;;2.60;;
10088;SDS011;51898;49.864;8.550;2023-05-16T15:14:58;5.87;;;2.40;;
10088;SDS011;51898;49.864;8.550;2023-05-16T15:18:00;2.80;;;2.33;;
10088;SDS011;51898;49.864;8.550;2023-05-16T15:21:02;5.27;;;2.20;;
10088;SDS011;51898;49.864;8.550;2023-05-16T15:24:04;5.30;;;2.43;;
10088;SDS011;51898;49.864;8.550;2023-05-16T15:27:06;3.50;;;1.77;;
10088;SDS011;51898;49.864;8.550;2023-05-16T15:30:08;2.93;;;2.20;;
10088;SDS011;51898;49.864;8.550;2023-05-16T15:33:10;4.47;;;2.00;;
10088;SDS011;51898;49.864;8.550;2023-05-16T15:36:13;3.80;;;2.50;;
10088;SDS011;51898;49.864;8.550;2023-05-16T15:39:15;3.20;;;1.90;;
10088;SDS011;51898;49.864;8.550;2023-05-16T15:42:17;7.07;;;2.00;;
10088;SDS011;51898;49.864;8.550;2023-05-16T15:45:20;3.13;;;2.10;;
10088;SDS011;51898;49.864;8.550;2023-05-16T15:48:21;4.50;;;2.00;;
10088;SDS011;51898;49.864;8.550;2023-05-16T15:51:23;3.50;;;1.90;;
10088;SDS011;51898;49.864;8.550;2023-05-16T15:54:26;2.80;;;1.87;;
10088;SDS011;51898;49.864;8.550;2023-05-16T15:57:29;4.13;;;2.53;;
10088;SDS011;51898;49.864;8.550;2023-05-16T16:00:31;3.13;;;1.87;;
10088;SDS011;51898;49.864;8.550;2023-05-16T16:03:32;3.60;;;2.13;;
10088;SDS011;51898;49.864;8.550;2023-05-16T16:06:35;2.63;;;1.70;;
10088;SDS011;51898;49.864;8.550;2023-05-16T16:09:37;3.60;;;2.30;;
10088;SDS011;51898;49.864;8.550;2023-05-16T16:12:40;4.10;;;2.60;;
10088;SDS011;51898;49.864;8.550;2023-05-16T16:15:43;3.53;;;1.90;;
10088;SDS011;51898;49.864;8.550;2023-05-16T16:18:45;7.07;;;2.87;;
10088;SDS011;51898;49.864;8.550;2023-05-16T16:21:47;3.57;;;2.00;;
10088;SDS011;51898;49.864;8.550;2023-05-16T16:24:49;2.40;;;2.20;;
10088;SDS011;51898;49.864;8.550;2023-05-16T16:27:52;4.57;;;1.90;;
10088;SDS011;51898;49.864;8.550;2023-05-16T16:30:54;2.50;;;2.00;;
10088;SDS011;51898;49.864;8.550;2023-05-16T16:33:59;2.50;;;2.30;;
10088;SDS011;51898;49.864;8.550;2023-05-16T16:37:02;2.43;;;2.17;;
10088;SDS011;51898;49.864;8.550;2023-05-16T16:40:05;2.27;;;2.07;;
10088;SDS011;51898;49.864;8.550;2023-05-16T16:43:09;3.70;;;2.50;;
10088;SDS011;51898;49.864;8.550;2023-05-16T16:46:11;5.43;;;2.60;;
10088;SDS011;51898;49.864;8.550;2023-05-16T16:49:13;2.60;;;2.23;;
10088;SDS011;51898;49.864;8.550;2023-05-16T16:52:15;3.03;;;1.77;;
10088;SDS011;51898;49.864;8.550;2023-05-16T16:55:16;3.20;;;2.30;;
10088;SDS011;51898;49.864;8.550;2023-05-16T16:58:18;3.27;;;2.37;;
10088;SDS011;51898;49.864;8.550;2023-05-16T17:01:21;4.77;;;2.80;;
10088;SDS011;51898;49.864;8.550;2023-05-16T17:04:23;3.93;;;2.40;;
10088;SDS011;51898;49.864;8.550;2023-05-16T17:07:25;2.50;;;2.30;;
10088;SDS011;51898;49.864;8.550;2023-05-16T17:10:27;2.70;;;2.20;;
10088;SDS011;51898;49.864;8.550;2023-05-16T17:13:32;2.70;;;2.03;;
10088;SDS011;51898;49.864;8.550;2023-05-16T17:16:34;3.00;;;2.20;;
10088;SDS011;51898;49.864;8.550;2023-05-16T17:19:36;4.20;;;2.70;;
10088;SDS011;51898;49.864;8.550;2023-05-16T17:22:38;2.47;;;2.20;;
10088;SDS011;51898;49.864;8.550;2023-05-16T17:25:40;5.60;;;2.20;;
10088;SDS011;51898;49.864;8.550;2023-05-16T17:28:43;3.50;;;2.20;;
10088;SDS011;51898;49.864;8.550;2023-05-16T17:31:45;3.67;;;2.23;;
10088;SDS011;51898;49.864;8.550;2023-05-16T17:34:47;3.90;;;2.03;;
10088;SDS011;51898;49.864;8.550;2023-05-16T17:37:50;5.40;;;2.30;;
10088;SDS011;51898;49.864;8.550;2023-05-16T17:40:54;2.50;;;2.13;;
10088;SDS011;51898;49.864;8.550;2023-05-16T17:43:56;3.30;;;2.20;;
10088;SDS011;51898;49.864;8.550;2023-05-16T17:46:57;4.17;;;2.43;;
10088;SDS011;51898;49.864;8.550;2023-05-16T17:49:59;3.60;;;1.87;;
10088;SDS011;51898;49.864;8.550;2023-05-16T17:53:01;6.37;;;2.30;;
10088;SDS011;51898;49.864;8.550;2023-05-16T17:56:03;7.67;;;2.77;;
10088;SDS011;51898;49.864;8.550;2023-05-16T17:59:05;4.73;;;2.40;;
10088;SDS011;51898;49.864;8.550;2023-05-16T18:02:07;2.30;;;2.10;;
10088;SDS011;51898;49.864;8.550;2023-05-16T18:05:10;2.50;;;2.00;;
10088;SDS011;51898;49.864;8.550;2023-05-16T18:08:12;2.00;;;1.90;;
10088;SDS011;51898;49.864;8.550;2023-05-16T18:11:14;5.83;;;2.57;;
10088;SDS011;51898;49.864;8.550;2023-05-16T18:14:15;7.40;;;4.30;;
10088;SDS011;51898;49.864;8.550;2023-05-16T18:17:17;5.00;;;2.20;;
10088;SDS011;51898;49.864;8.550;2023-05-16T18:20:19;6.03;;;1.90;;
10088;SDS011;51898;49.864;8.550;2023-05-16T18:23:22;3.43;;;2.03;;
10088;SDS011;51898;49.864;8.550;2023-05-16T18:26:26;4.20;;;2.53;;
10088;SDS011;51898;49.864;8.550;2023-05-16T18:29:28;4.00;;;2.00;;
10088;SDS011;51898;49.864;8.550;2023-05-16T18:32:30;1.70;;;1.60;;
10088;SDS011;51898;49.864;8.550;2023-05-16T18:35:32;2.67;;;2.03;;
10088;SDS011;51898;49.864;8.550;2023-05-16T18:38:34;3.43;;;1.90;;